createdAt,value
2023-06-11T00:00:07.689Z,18.18
2023-06-11T00:01:07.681Z,18.17
2023-06-11T00:02:07.705Z,18.17
2023-06-11T00:03:07.769Z,18.17
2023-06-11T00:04:07.853Z,18.17
2023-06-11T00:05:07.832Z,18.17
2023-06-11T00:06:07.620Z,18.17
2023-06-11T00:07:07.598Z,18.17
2023-06-11T00:08:07.582Z,18.17
2023-06-11T00:09:07.574Z,18.17
2023-06-11T00:10:07.562Z,18.16
2023-06-11T00:11:07.548Z,18.16
2023-06-11T00:12:07.528Z,18.16
2023-06-11T00:13:07.546Z,18.17
2023-06-11T00:14:07.507Z,18.16
2023-06-11T00:15:07.711Z,18.16
2023-06-11T00:16:07.556Z,18.14
2023-06-11T00:17:07.466Z,18.14
2023-06-11T00:18:07.482Z,18.16
2023-06-11T00:19:07.440Z,18.12
2023-06-11T00:20:07.430Z,18.14
2023-06-11T00:21:07.416Z,18.14
2023-06-11T00:22:07.408Z,18.14
2023-06-11T00:23:07.382Z,18.12
2023-06-11T00:24:07.414Z,18.12
2023-06-11T00:25:07.506Z,18.12
2023-06-11T00:26:07.342Z,18.12
2023-06-11T00:27:07.335Z,18.12
2023-06-11T00:28:07.319Z,18.12
2023-06-11T00:29:07.328Z,18.11
2023-06-11T00:30:07.510Z,18.12
2023-06-11T00:31:07.419Z,18.11
2023-06-11T00:32:07.335Z,18.11
2023-06-11T00:33:07.294Z,18.11
2023-06-11T00:34:07.241Z,18.09
2023-06-11T00:35:07.369Z,18.09
2023-06-11T00:36:07.220Z,18.09
2023-06-11T00:37:07.198Z,18.09
2023-06-11T00:38:07.185Z,18.09
2023-06-11T00:39:07.166Z,18.11
2023-06-11T00:40:07.291Z,18.09
2023-06-11T00:41:07.141Z,18.09
2023-06-11T00:42:07.131Z,18.08
2023-06-11T00:43:07.118Z,18.08
2023-06-11T00:44:07.106Z,18.06
2023-06-11T00:45:07.451Z,18.06
2023-06-11T00:46:07.125Z,18.06
2023-06-11T00:47:07.064Z,18.06
2023-06-11T00:48:07.121Z,18.06
2023-06-11T00:49:07.037Z,18.05
2023-06-11T00:50:07.026Z,18.05
2023-06-11T00:51:07.014Z,18.05
2023-06-11T00:52:06.996Z,18.05
2023-06-11T00:53:07.043Z,18.05
2023-06-11T00:54:06.970Z,18.06
2023-06-11T00:55:06.955Z,18.05
2023-06-11T00:56:06.944Z,18.05
2023-06-11T00:57:06.935Z,18.05
2023-06-11T00:58:06.989Z,18.03
2023-06-11T00:59:06.900Z,18.05
2023-06-11T01:00:06.900Z,18.05
2023-06-11T01:01:06.988Z,18.03
2023-06-11T01:02:06.863Z,18.03
2023-06-11T01:03:06.904Z,18.03
2023-06-11T01:04:06.940Z,18.02
2023-06-11T01:05:06.903Z,18.02
2023-06-11T01:06:06.818Z,18.03
2023-06-11T01:07:06.796Z,18.03
2023-06-11T01:08:06.781Z,18.02
2023-06-11T01:09:06.786Z,18.02
2023-06-11T01:10:06.754Z,18.02
2023-06-11T01:11:09.653Z,18.02
2023-06-11T01:12:06.726Z,17.99
2023-06-11T01:13:06.711Z,17.99
2023-06-11T01:14:06.706Z,18.01
2023-06-11T01:15:06.687Z,17.99
2023-06-11T01:16:06.672Z,17.99
2023-06-11T01:17:06.732Z,17.98
2023-06-11T01:18:06.811Z,17.98
2023-06-11T01:19:06.648Z,17.98
2023-06-11T01:20:06.615Z,17.98
2023-06-11T01:21:06.603Z,17.98
2023-06-11T01:22:06.612Z,17.99
2023-06-11T01:23:06.586Z,17.96
2023-06-11T01:24:06.678Z,17.98
2023-06-11T01:25:06.548Z,17.98
2023-06-11T01:26:06.539Z,17.96
2023-06-11T01:27:06.536Z,17.96
2023-06-11T01:28:06.511Z,17.96
2023-06-11T01:29:06.494Z,17.98
2023-06-11T01:30:06.488Z,17.96
2023-06-11T01:31:06.591Z,17.96
2023-06-11T01:32:06.459Z,17.94
2023-06-11T01:33:06.521Z,17.94
2023-06-11T01:34:06.434Z,17.94
2023-06-11T01:35:06.415Z,17.94
2023-06-11T01:36:06.409Z,17.96
2023-06-11T01:37:06.387Z,17.93
2023-06-11T01:38:06.374Z,17.94
2023-06-11T01:39:06.363Z,17.94
2023-06-11T01:40:06.355Z,17.93
2023-06-11T01:41:06.347Z,17.94
2023-06-11T01:42:06.331Z,17.94
2023-06-11T01:43:06.306Z,17.93
2023-06-11T01:44:06.306Z,17.93
2023-06-11T01:45:06.277Z,17.93
2023-06-11T01:46:06.327Z,17.91
2023-06-11T01:47:06.375Z,17.90
2023-06-11T01:48:06.309Z,17.91
2023-06-11T01:49:06.262Z,17.93
2023-06-11T01:50:06.214Z,17.91
2023-06-11T01:51:06.204Z,17.90
2023-06-11T01:52:06.192Z,17.90
2023-06-11T01:53:06.172Z,17.91
2023-06-11T01:54:06.168Z,17.90
2023-06-11T01:55:06.143Z,17.90
2023-06-11T01:56:06.136Z,17.88
2023-06-11T01:57:06.117Z,17.88
2023-06-11T01:58:06.106Z,17.88
2023-06-11T01:59:06.117Z,17.87
2023-06-11T02:00:06.077Z,17.88
2023-06-11T02:01:06.062Z,17.87
2023-06-11T02:02:06.173Z,17.88
2023-06-11T02:03:06.100Z,17.87
2023-06-11T02:04:06.151Z,17.87
2023-06-11T02:05:06.040Z,17.87
2023-06-11T02:06:05.996Z,17.87
2023-06-11T02:07:05.990Z,17.87
2023-06-11T02:08:05.979Z,17.87
2023-06-11T02:09:05.974Z,17.86
2023-06-11T02:10:05.947Z,17.87
2023-06-11T02:11:05.933Z,17.86
2023-06-11T02:12:05.918Z,17.84
2023-06-11T02:13:05.904Z,17.86
2023-06-11T02:14:05.897Z,17.86
2023-06-11T02:15:05.887Z,17.84
2023-06-11T02:16:05.877Z,17.86
2023-06-11T02:17:05.857Z,17.86
2023-06-11T02:18:05.920Z,17.84
2023-06-11T02:19:05.831Z,17.84
2023-06-11T02:20:05.813Z,17.84
2023-06-11T02:21:05.828Z,17.84
2023-06-11T02:22:05.786Z,17.84
2023-06-11T02:23:05.779Z,17.84
2023-06-11T02:24:05.812Z,17.84
2023-06-11T02:25:05.766Z,17.83
2023-06-11T02:26:05.731Z,17.83
2023-06-11T02:27:05.718Z,17.83
2023-06-11T02:28:05.705Z,17.83
2023-06-11T02:29:05.690Z,17.81
2023-06-11T02:30:05.678Z,17.81
2023-06-11T02:31:05.664Z,17.81
2023-06-11T02:32:05.712Z,17.81
2023-06-11T02:33:05.703Z,17.81
2023-06-11T02:34:05.624Z,17.80
2023-06-11T02:35:05.635Z,17.80
2023-06-11T02:36:05.602Z,17.80
2023-06-11T02:37:05.612Z,17.80
2023-06-11T02:38:05.572Z,17.81
2023-06-11T02:39:05.556Z,17.80
2023-06-11T02:40:05.544Z,17.80
2023-06-11T02:41:05.536Z,17.78
2023-06-11T02:42:05.527Z,17.80
2023-06-11T02:43:05.502Z,17.78
2023-06-11T02:44:05.496Z,17.80
2023-06-11T02:45:05.475Z,17.78
2023-06-11T02:46:05.523Z,17.78
2023-06-11T02:47:05.456Z,17.78
2023-06-11T02:48:05.574Z,17.78
2023-06-11T02:49:05.428Z,17.78
2023-06-11T02:50:05.414Z,17.78
2023-06-11T02:51:05.400Z,17.77
2023-06-11T02:52:05.385Z,17.77
2023-06-11T02:53:05.396Z,17.77
2023-06-11T02:54:05.370Z,17.77
2023-06-11T02:55:05.343Z,17.77
2023-06-11T02:56:05.331Z,17.75
2023-06-11T02:57:05.317Z,17.77
2023-06-11T02:58:05.306Z,17.77
2023-06-11T02:59:05.293Z,17.73
2023-06-11T03:00:05.294Z,17.75
2023-06-11T03:01:05.291Z,17.75
2023-06-11T03:02:05.261Z,17.75
2023-06-11T03:03:05.288Z,17.75
2023-06-11T03:04:05.245Z,17.75
2023-06-11T03:05:05.219Z,17.75
2023-06-11T03:06:05.214Z,17.73
2023-06-11T03:07:05.185Z,17.75
2023-06-11T03:08:05.176Z,17.75
2023-06-11T03:09:05.201Z,17.73
2023-06-11T03:10:05.168Z,17.73
2023-06-11T03:11:05.132Z,17.75
2023-06-11T03:12:05.132Z,17.73
2023-06-11T03:13:05.137Z,17.77
2023-06-11T03:14:05.094Z,17.73
2023-06-11T03:15:05.078Z,17.73
2023-06-11T03:16:05.110Z,17.75
2023-06-11T03:17:05.060Z,17.73
2023-06-11T03:18:05.054Z,17.73
2023-06-11T03:19:05.034Z,17.73
2023-06-11T03:20:05.010Z,17.75
2023-06-11T03:21:05.012Z,17.73
2023-06-11T03:22:05.013Z,17.75
2023-06-11T03:23:04.968Z,17.73
2023-06-11T03:24:05.002Z,17.73
2023-06-11T03:25:04.967Z,17.75
2023-06-11T03:26:04.928Z,17.75
2023-06-11T03:27:04.912Z,17.73
2023-06-11T03:28:04.910Z,17.75
2023-06-11T03:29:04.897Z,17.72
2023-06-11T03:30:04.882Z,17.73
2023-06-11T03:31:04.896Z,17.73
2023-06-11T03:32:04.855Z,17.72
2023-06-11T03:33:04.889Z,17.72
2023-06-11T03:34:04.825Z,17.72
2023-06-11T03:35:04.806Z,17.73
2023-06-11T03:36:04.797Z,17.72
2023-06-11T03:37:04.785Z,17.73
2023-06-11T03:38:04.769Z,17.73
2023-06-11T03:39:04.753Z,17.72
2023-06-11T03:40:04.754Z,17.72
2023-06-11T03:41:04.753Z,17.72
2023-06-11T03:42:04.718Z,17.72
2023-06-11T03:43:04.705Z,17.73
2023-06-11T03:44:04.695Z,17.72
2023-06-11T03:45:04.696Z,17.75
2023-06-11T03:46:04.657Z,17.70
2023-06-11T03:47:04.785Z,17.73
2023-06-11T03:48:04.743Z,17.73
2023-06-11T03:49:04.620Z,17.73
2023-06-11T03:50:04.609Z,17.72
2023-06-11T03:51:04.590Z,17.73
2023-06-11T03:52:04.581Z,17.73
2023-06-11T03:53:04.564Z,17.72
2023-06-11T03:54:04.561Z,17.73
2023-06-11T03:55:04.542Z,17.73
2023-06-11T03:56:04.525Z,17.72
2023-06-11T03:57:04.563Z,17.73
2023-06-11T03:58:04.501Z,17.75
2023-06-11T03:59:04.489Z,17.73
2023-06-11T04:00:04.484Z,17.75
2023-06-11T04:01:04.462Z,17.77
2023-06-11T04:02:04.464Z,17.75
2023-06-11T04:03:04.553Z,17.77
2023-06-11T04:04:04.487Z,17.78
2023-06-11T04:05:04.404Z,17.80
2023-06-11T04:06:04.392Z,17.81
2023-06-11T04:07:04.387Z,17.83
2023-06-11T04:08:04.369Z,17.86
2023-06-11T04:09:04.371Z,17.86
2023-06-11T04:10:04.341Z,17.86
2023-06-11T04:11:04.346Z,17.88
2023-06-11T04:12:04.313Z,17.90
2023-06-11T04:13:04.327Z,17.93
2023-06-11T04:14:04.287Z,17.93
2023-06-11T04:15:04.277Z,17.94
2023-06-11T04:16:06.819Z,17.98
2023-06-11T04:17:04.300Z,17.99
2023-06-11T04:18:04.260Z,17.99
2023-06-11T04:19:04.222Z,17.99
2023-06-11T04:20:04.217Z,18.01
2023-06-11T04:21:04.199Z,18.01
2023-06-11T04:22:04.182Z,18.02
2023-06-11T04:23:04.171Z,18.02
2023-06-11T04:24:05.961Z,18.05
2023-06-11T04:25:04.134Z,18.05
2023-06-11T04:26:04.128Z,18.06
2023-06-11T04:27:04.109Z,18.09
2023-06-11T04:28:04.114Z,18.09
2023-06-11T04:29:04.110Z,18.09
2023-06-11T04:30:04.093Z,18.12
2023-06-11T04:31:04.082Z,18.12
2023-06-11T04:32:04.055Z,18.17
2023-06-11T04:33:04.095Z,18.16
2023-06-11T04:34:04.095Z,18.20
2023-06-11T04:35:04.035Z,18.20
2023-06-11T04:36:03.990Z,18.20
2023-06-11T04:37:03.983Z,18.20
2023-06-11T04:38:03.964Z,18.24
2023-06-11T04:39:03.954Z,18.23
2023-06-11T04:40:03.954Z,18.27
2023-06-11T04:41:03.927Z,18.28
2023-06-11T04:42:03.907Z,18.33
2023-06-11T04:43:03.901Z,18.39
2023-06-11T04:44:03.889Z,18.43
2023-06-11T04:45:03.896Z,18.44
2023-06-11T04:46:03.903Z,18.46
2023-06-11T04:47:03.930Z,18.49
2023-06-11T04:48:03.847Z,18.52
2023-06-11T04:49:03.830Z,18.54
2023-06-11T04:50:03.816Z,18.54
2023-06-11T04:51:03.804Z,18.57
2023-06-11T04:52:03.780Z,18.55
2023-06-11T04:53:03.766Z,18.55
2023-06-11T04:54:03.747Z,18.58
2023-06-11T04:55:03.738Z,18.59
2023-06-11T04:56:05.316Z,18.61
2023-06-11T04:57:03.709Z,18.59
2023-06-11T04:58:03.698Z,18.61
2023-06-11T04:59:03.682Z,18.62
2023-06-11T05:00:03.670Z,18.65
2023-06-11T05:01:03.680Z,18.68
2023-06-11T05:02:03.775Z,18.70
2023-06-11T05:03:03.791Z,18.68
2023-06-11T05:04:03.623Z,18.70
2023-06-11T05:05:03.635Z,18.72
2023-06-11T05:06:03.607Z,18.73
2023-06-11T05:07:03.578Z,18.72
2023-06-11T05:08:03.573Z,18.76
2023-06-11T05:09:03.553Z,18.77
2023-06-11T05:10:03.536Z,18.79
2023-06-11T05:11:03.542Z,18.82
2023-06-11T05:12:03.522Z,18.80
2023-06-11T05:13:03.507Z,18.82
2023-06-11T05:14:03.505Z,18.84
2023-06-11T05:15:03.477Z,18.86
2023-06-11T05:16:03.495Z,18.87
2023-06-11T05:17:03.520Z,18.92
2023-06-11T05:18:03.500Z,18.94
2023-06-11T05:19:03.423Z,18.97
2023-06-11T05:20:03.406Z,18.97
2023-06-11T05:21:03.401Z,18.98
2023-06-11T05:22:03.379Z,18.98
2023-06-11T05:23:03.367Z,18.99
2023-06-11T05:24:03.386Z,19.01
2023-06-11T05:25:03.340Z,19.02
2023-06-11T05:26:03.326Z,19.04
2023-06-11T05:27:03.318Z,19.02
2023-06-11T05:28:03.305Z,19.02
2023-06-11T05:29:03.298Z,19.01
2023-06-11T05:30:03.287Z,19.04
2023-06-11T05:31:03.261Z,19.04
2023-06-11T05:32:03.272Z,19.05
2023-06-11T05:33:03.290Z,19.07
2023-06-11T05:34:03.219Z,19.07
2023-06-11T05:35:03.212Z,19.05
2023-06-11T05:36:03.195Z,19.05
2023-06-11T05:37:03.185Z,19.09
2023-06-11T05:38:03.162Z,19.05
2023-06-11T05:39:03.151Z,19.05
2023-06-11T05:40:03.135Z,19.07
2023-06-11T05:41:03.121Z,19.05
2023-06-11T05:42:03.111Z,19.04
2023-06-11T05:43:03.105Z,19.02
2023-06-11T05:44:03.084Z,19.02
2023-06-11T05:45:03.074Z,19.05
2023-06-11T05:46:03.092Z,19.07
2023-06-11T05:47:03.110Z,19.09
2023-06-11T05:48:03.052Z,19.10
2023-06-11T05:49:03.054Z,19.10
2023-06-11T05:50:03.004Z,19.09
2023-06-11T05:51:02.985Z,19.05
2023-06-11T05:52:02.974Z,19.07
2023-06-11T05:53:02.961Z,19.07
2023-06-11T05:54:02.964Z,19.05
2023-06-11T05:55:02.936Z,19.07
2023-06-11T05:56:02.931Z,19.10
2023-06-11T05:57:02.906Z,19.10
2023-06-11T05:58:02.924Z,19.09
2023-06-11T05:59:02.881Z,19.09
2023-06-11T06:00:02.879Z,19.07
2023-06-11T06:01:02.853Z,19.09
2023-06-11T06:02:02.847Z,19.12
2023-06-11T06:03:02.967Z,19.12
2023-06-11T06:04:02.922Z,19.07
2023-06-11T06:05:02.886Z,19.09
2023-06-11T06:06:02.799Z,19.10
2023-06-11T06:07:02.780Z,19.09
2023-06-11T06:08:02.759Z,19.10
2023-06-11T06:09:02.748Z,19.09
2023-06-11T06:10:02.743Z,19.09
2023-06-11T06:11:02.719Z,19.09
2023-06-11T06:12:02.708Z,19.09
2023-06-11T06:13:02.698Z,19.09
2023-06-11T06:14:02.685Z,19.07
2023-06-11T06:15:02.670Z,19.09
2023-06-11T06:16:02.739Z,19.09
2023-06-11T06:17:02.657Z,19.09
2023-06-11T06:18:02.691Z,19.10
2023-06-11T06:19:02.622Z,19.10
2023-06-11T06:20:02.656Z,19.10
2023-06-11T06:21:02.636Z,19.10
2023-06-11T06:22:02.577Z,19.10
2023-06-11T06:23:02.590Z,19.12
2023-06-11T06:24:02.587Z,19.13
2023-06-11T06:25:02.535Z,19.12
2023-06-11T06:26:02.523Z,19.12
2023-06-11T06:27:02.518Z,19.10
2023-06-11T06:28:02.495Z,19.09
2023-06-11T06:29:02.484Z,19.09
2023-06-11T06:30:02.466Z,19.09
2023-06-11T06:31:02.459Z,19.12
2023-06-11T06:32:02.623Z,19.12
2023-06-11T06:33:02.513Z,19.12
2023-06-11T06:34:02.419Z,19.12
2023-06-11T06:35:02.403Z,19.13
2023-06-11T06:36:02.403Z,19.13
2023-06-11T06:37:02.399Z,19.09
2023-06-11T06:38:02.361Z,19.07
2023-06-11T06:39:02.353Z,19.04
2023-06-11T06:40:02.362Z,19.05
2023-06-11T06:41:02.333Z,19.05
2023-06-11T06:42:02.307Z,19.05
2023-06-11T06:43:02.313Z,19.07
2023-06-11T06:44:02.334Z,19.07
2023-06-11T06:45:02.273Z,19.05
2023-06-11T06:46:02.257Z,19.05
2023-06-11T06:47:02.243Z,19.05
2023-06-11T06:48:02.299Z,19.04
2023-06-11T06:49:02.289Z,19.05
2023-06-11T06:50:02.202Z,19.04
2023-06-11T06:51:02.195Z,19.02
2023-06-11T06:52:02.179Z,19.01
2023-06-11T06:53:02.194Z,18.98
2023-06-11T06:54:02.160Z,18.99
2023-06-11T06:55:02.139Z,18.94
2023-06-11T06:56:02.124Z,18.95
2023-06-11T06:57:02.113Z,18.94
2023-06-11T06:58:02.129Z,18.92
2023-06-11T06:59:02.087Z,18.90
2023-06-11T07:00:02.100Z,18.92
2023-06-11T07:01:02.096Z,18.97
2023-06-11T07:02:02.051Z,18.97
2023-06-11T07:03:02.075Z,18.98
2023-06-11T07:04:02.014Z,18.95
2023-06-11T07:05:02.004Z,18.92
2023-06-11T07:06:02.089Z,18.94
2023-06-11T07:07:01.977Z,18.92
2023-06-11T07:08:01.974Z,18.94
2023-06-11T07:09:01.978Z,18.92
2023-06-11T07:10:01.981Z,18.87
2023-06-11T07:11:01.931Z,18.90
2023-06-11T07:12:01.922Z,18.90
2023-06-11T07:13:01.900Z,18.91
2023-06-11T07:14:01.896Z,18.92
2023-06-11T07:15:01.872Z,18.90
2023-06-11T07:16:01.945Z,18.90
2023-06-11T07:17:01.845Z,18.91
2023-06-11T07:18:01.861Z,18.92
2023-06-11T07:19:01.818Z,18.94
2023-06-11T07:20:01.864Z,18.95
2023-06-11T07:21:01.797Z,18.95
2023-06-11T07:22:01.776Z,18.94
2023-06-11T07:23:01.763Z,18.94
2023-06-11T07:24:01.777Z,18.94
2023-06-11T07:25:01.767Z,18.92
2023-06-11T07:26:01.724Z,18.94
2023-06-11T07:27:01.715Z,18.90
2023-06-11T07:28:01.694Z,18.86
2023-06-11T07:29:01.681Z,18.87
2023-06-11T07:30:01.680Z,18.90
2023-06-11T07:31:01.687Z,18.91
2023-06-11T07:32:01.645Z,18.92
2023-06-11T07:33:01.766Z,18.94
2023-06-11T07:34:01.614Z,18.97
2023-06-11T07:35:01.615Z,18.95
2023-06-11T07:36:01.599Z,18.94
2023-06-11T07:37:01.575Z,18.94
2023-06-11T07:38:01.565Z,18.90
2023-06-11T07:39:01.548Z,18.90
2023-06-11T07:40:01.535Z,18.84
2023-06-11T07:41:01.608Z,18.84
2023-06-11T07:42:01.517Z,18.86
2023-06-11T07:43:01.493Z,18.90
2023-06-11T07:44:01.497Z,18.92
2023-06-11T07:45:01.468Z,18.92
2023-06-11T07:46:32.502Z,18.92
2023-06-11T07:47:32.461Z,18.84
2023-06-11T07:48:32.412Z,18.76
2023-06-11T07:49:32.401Z,18.73
2023-06-11T07:50:32.386Z,18.77
2023-06-11T07:51:32.386Z,18.80
2023-06-11T07:52:32.361Z,18.83
2023-06-11T07:53:32.347Z,18.86
2023-06-11T07:54:32.369Z,18.87
2023-06-11T07:55:32.338Z,18.87
2023-06-11T07:56:32.336Z,18.90
2023-06-11T07:57:32.298Z,18.91
2023-06-11T07:58:32.301Z,18.90
2023-06-11T07:59:32.265Z,18.86
2023-06-11T08:00:32.274Z,18.83
2023-06-11T08:01:32.268Z,18.82
2023-06-11T08:02:32.409Z,18.82
2023-06-11T08:03:32.276Z,18.86
2023-06-11T08:04:32.218Z,18.80
2023-06-11T08:05:32.235Z,18.80
2023-06-11T08:06:32.173Z,18.83
2023-06-11T08:07:32.173Z,18.80
2023-06-11T08:08:32.166Z,18.83
2023-06-11T08:09:32.145Z,18.84
2023-06-11T08:10:32.134Z,18.86
2023-06-11T08:11:32.121Z,18.86
2023-06-11T08:12:32.134Z,18.87
2023-06-11T08:13:32.082Z,18.90
2023-06-11T08:14:32.069Z,18.87
2023-06-11T08:15:32.053Z,18.84
2023-06-11T08:16:32.077Z,18.84
2023-06-11T08:17:32.066Z,18.86
2023-06-11T08:18:32.032Z,18.87
2023-06-11T08:19:32.015Z,18.87
2023-06-11T08:20:31.994Z,18.86
2023-06-11T08:21:31.974Z,18.87
2023-06-11T08:22:31.956Z,18.90
2023-06-11T08:23:31.964Z,18.87
2023-06-11T08:24:32.050Z,18.92
2023-06-11T08:25:31.929Z,18.90
2023-06-11T08:26:31.908Z,18.90
2023-06-11T08:27:31.910Z,18.87
2023-06-11T08:28:31.905Z,18.90
2023-06-11T08:29:31.883Z,18.87
2023-06-11T08:30:31.869Z,18.90
2023-06-11T08:31:31.883Z,18.87
2023-06-11T08:32:32.010Z,18.90
2023-06-11T08:33:31.879Z,18.87
2023-06-11T08:34:31.817Z,18.90
2023-06-11T08:35:31.789Z,18.92
2023-06-11T08:36:31.771Z,18.91
2023-06-11T08:37:31.776Z,18.92
2023-06-11T08:38:31.747Z,18.95
2023-06-11T08:39:31.733Z,18.95
2023-06-11T08:40:31.727Z,18.95
2023-06-11T08:41:31.708Z,18.92
2023-06-11T08:42:31.693Z,18.95
2023-06-11T08:43:31.694Z,18.97
2023-06-11T08:44:31.694Z,18.95
2023-06-11T08:45:31.666Z,18.95
2023-06-11T08:46:31.727Z,18.95
2023-06-11T08:47:31.707Z,18.95
2023-06-11T08:48:31.605Z,18.95
2023-06-11T08:49:31.610Z,18.97
2023-06-11T08:50:31.588Z,18.91
2023-06-11T08:51:31.569Z,18.91
2023-06-11T08:52:31.562Z,18.91
2023-06-11T08:53:31.544Z,18.94
2023-06-11T08:54:31.540Z,18.92
2023-06-11T08:55:31.521Z,18.91
2023-06-11T08:56:31.510Z,18.92
2023-06-11T08:57:31.506Z,18.92
2023-06-11T08:58:31.473Z,18.94
2023-06-11T08:59:31.462Z,18.94
2023-06-11T09:00:31.471Z,18.95
2023-06-11T09:01:31.490Z,18.97
2023-06-11T09:02:31.452Z,18.97
2023-06-11T09:03:31.436Z,18.95
2023-06-11T09:04:31.469Z,18.98
2023-06-11T09:05:31.382Z,18.99
2023-06-11T09:06:31.383Z,19.01
2023-06-11T09:07:31.369Z,19.01
2023-06-11T09:08:31.353Z,19.01
2023-06-11T09:09:31.326Z,19.01
2023-06-11T09:10:31.311Z,19.01
2023-06-11T09:11:37.301Z,19.01
2023-06-11T09:12:31.302Z,18.99
2023-06-11T09:13:31.272Z,19.01
2023-06-11T09:14:31.270Z,19.01
2023-06-11T09:15:31.263Z,18.97
2023-06-11T09:16:31.312Z,18.91
2023-06-11T09:17:31.240Z,18.86
2023-06-11T09:18:37.224Z,18.84
2023-06-11T09:19:31.193Z,18.87
2023-06-11T09:20:31.180Z,18.90
2023-06-11T09:21:31.167Z,18.94
2023-06-11T09:22:31.167Z,18.97
2023-06-11T09:23:31.907Z,19.01
2023-06-11T09:24:31.168Z,19.01
2023-06-11T09:25:31.114Z,18.99
2023-06-11T09:26:31.099Z,18.99
2023-06-11T09:27:31.101Z,19.01
2023-06-11T09:28:31.072Z,19.02
2023-06-11T09:29:31.077Z,19.02
2023-06-11T09:30:31.067Z,19.02
2023-06-11T09:31:31.127Z,18.99
2023-06-11T09:32:34.527Z,18.98
2023-06-11T09:33:31.070Z,18.94
2023-06-11T09:34:30.994Z,18.97
2023-06-11T09:35:30.985Z,18.92
2023-06-11T09:36:30.968Z,18.87
2023-06-11T09:37:30.970Z,18.83
2023-06-11T09:38:30.954Z,18.86
2023-06-11T09:39:30.931Z,18.90
2023-06-11T09:40:30.916Z,18.95
2023-06-11T09:41:30.902Z,18.98
2023-06-11T09:42:30.888Z,18.99
2023-06-11T09:43:30.874Z,19.05
2023-06-11T09:44:30.867Z,19.05
2023-06-11T09:45:30.940Z,19.07
2023-06-11T09:46:30.925Z,19.10
2023-06-11T09:47:30.903Z,19.09
2023-06-11T09:48:30.861Z,19.10
2023-06-11T09:49:30.853Z,19.10
2023-06-11T09:50:30.804Z,19.09
2023-06-11T09:51:30.768Z,19.12
2023-06-11T09:52:30.783Z,19.12
2023-06-11T09:53:32.032Z,19.10
2023-06-11T09:54:30.734Z,19.04
2023-06-11T09:55:30.724Z,19.01
2023-06-11T09:56:30.707Z,19.01
2023-06-11T09:57:30.695Z,18.99
2023-06-11T09:58:30.681Z,18.97
2023-06-11T09:59:30.678Z,18.95
2023-06-11T10:00:30.662Z,18.94
2023-06-11T10:01:30.665Z,18.95
2023-06-11T10:02:30.661Z,18.98
2023-06-11T10:03:30.678Z,18.97
2023-06-11T10:04:30.630Z,18.91
2023-06-11T10:05:30.604Z,18.95
2023-06-11T10:06:30.575Z,18.97
2023-06-11T10:07:30.573Z,18.99
2023-06-11T10:08:30.557Z,19.01
2023-06-11T10:09:30.539Z,19.04
2023-06-11T10:10:30.525Z,19.07
2023-06-11T10:11:30.522Z,19.09
2023-06-11T10:12:30.527Z,19.10
2023-06-11T10:13:30.533Z,19.10
2023-06-11T10:14:30.469Z,19.12
2023-06-11T10:15:30.456Z,19.10
2023-06-11T10:16:30.513Z,19.02
2023-06-11T10:17:30.493Z,18.99
2023-06-11T10:18:30.426Z,18.95
2023-06-11T10:19:30.407Z,18.92
2023-06-11T10:20:30.421Z,18.90
2023-06-11T10:21:30.378Z,18.92
2023-06-11T10:22:30.362Z,18.91
2023-06-11T10:23:30.361Z,18.94
2023-06-11T10:24:30.403Z,18.98
2023-06-11T10:25:30.330Z,18.97
2023-06-11T10:26:30.344Z,18.97
2023-06-11T10:27:30.319Z,19.01
2023-06-11T10:28:30.290Z,19.01
2023-06-11T10:29:30.275Z,19.05
2023-06-11T10:30:30.254Z,19.09
2023-06-11T10:31:30.266Z,19.09
2023-06-11T10:32:30.255Z,19.09
2023-06-11T10:33:30.326Z,19.10
2023-06-11T10:34:32.507Z,19.13
2023-06-11T10:35:30.337Z,19.12
2023-06-11T10:36:30.202Z,19.12
2023-06-11T10:37:30.186Z,19.14
2023-06-11T10:38:30.157Z,19.17
2023-06-11T10:39:30.147Z,19.19
2023-06-11T10:40:30.130Z,19.20
2023-06-11T10:41:30.139Z,19.19
2023-06-11T10:42:30.097Z,19.20
2023-06-11T10:43:30.087Z,19.19
2023-06-11T10:44:30.073Z,19.19
2023-06-11T10:45:30.057Z,19.19
2023-06-11T10:46:30.141Z,19.19
2023-06-11T10:47:30.071Z,19.20
2023-06-11T10:48:30.161Z,19.20
2023-06-11T10:49:30.013Z,19.22
2023-06-11T10:50:30.002Z,19.20
2023-06-11T10:51:29.984Z,19.22
2023-06-11T10:52:29.994Z,19.30
2023-06-11T10:53:29.951Z,19.32
2023-06-11T10:54:29.957Z,19.34
2023-06-11T10:55:29.934Z,19.27
2023-06-11T10:56:29.961Z,19.24
2023-06-11T10:57:29.904Z,19.23
2023-06-11T10:58:29.886Z,19.24
2023-06-11T10:59:29.882Z,19.28
2023-06-11T11:00:29.867Z,19.27
2023-06-11T11:01:29.872Z,19.27
2023-06-11T11:02:29.858Z,19.28
2023-06-11T11:03:29.876Z,19.30
2023-06-11T11:04:29.882Z,19.31
2023-06-11T11:05:29.800Z,19.32
2023-06-11T11:06:29.770Z,19.30
2023-06-11T11:07:29.772Z,19.24
2023-06-11T11:08:29.806Z,19.23
2023-06-11T11:09:29.750Z,19.22
2023-06-11T11:10:29.723Z,19.23
2023-06-11T11:11:29.705Z,19.27
2023-06-11T11:12:29.712Z,19.28
2023-06-11T11:13:29.680Z,19.31
2023-06-11T11:14:29.672Z,19.31
2023-06-11T11:15:29.800Z,19.30
2023-06-11T11:16:29.715Z,19.30
2023-06-11T11:17:29.638Z,19.30
2023-06-11T11:18:29.632Z,19.31
2023-06-11T11:19:29.614Z,19.30
2023-06-11T11:20:29.588Z,19.27
2023-06-11T11:21:29.575Z,19.23
2023-06-11T11:22:29.554Z,19.23
2023-06-11T11:23:29.546Z,19.24
2023-06-11T11:24:29.679Z,19.27
2023-06-11T11:25:29.531Z,19.32
2023-06-11T11:26:29.521Z,19.32
2023-06-11T11:27:29.504Z,19.34
2023-06-11T11:28:29.474Z,19.34
2023-06-11T11:29:29.465Z,19.34
2023-06-11T11:30:29.525Z,19.35
2023-06-11T11:31:29.474Z,19.35
2023-06-11T11:32:29.453Z,19.34
2023-06-11T11:33:29.410Z,19.34
2023-06-11T11:34:29.391Z,19.32
2023-06-11T11:35:29.389Z,19.31
2023-06-11T11:36:29.374Z,19.30
2023-06-11T11:37:29.363Z,19.30
2023-06-11T11:38:29.340Z,19.30
2023-06-11T11:39:29.332Z,19.28
2023-06-11T11:40:29.338Z,19.28
2023-06-11T11:41:29.309Z,19.28
2023-06-11T11:42:29.290Z,19.31
2023-06-11T11:43:29.292Z,19.35
2023-06-11T11:44:29.261Z,19.34
2023-06-11T11:45:29.249Z,19.35
2023-06-11T11:46:29.304Z,19.37
2023-06-11T11:47:29.247Z,19.37
2023-06-11T11:48:29.212Z,19.37
2023-06-11T11:49:29.205Z,19.37
2023-06-11T11:50:29.186Z,19.37
2023-06-11T11:51:29.174Z,19.34
2023-06-11T11:52:29.184Z,19.38
2023-06-11T11:53:29.147Z,19.41
2023-06-11T11:54:29.125Z,19.41
2023-06-11T11:55:29.149Z,19.41
2023-06-11T11:56:29.129Z,19.41
2023-06-11T11:57:29.085Z,19.39
2023-06-11T11:58:29.091Z,19.35
2023-06-11T11:59:29.496Z,19.35
2023-06-11T12:00:29.046Z,19.34
2023-06-11T12:01:29.030Z,19.34
2023-06-11T12:02:29.206Z,19.37
2023-06-11T12:03:29.137Z,19.38
2023-06-11T12:04:28.986Z,19.38
2023-06-11T12:05:29.137Z,19.41
2023-06-11T12:06:29.068Z,19.41
2023-06-11T12:07:28.968Z,19.38
2023-06-11T12:08:28.933Z,19.39
2023-06-11T12:09:28.916Z,19.38
2023-06-11T12:10:29.035Z,19.39
2023-06-11T12:11:28.892Z,19.39
2023-06-11T12:12:28.902Z,19.39
2023-06-11T12:13:28.865Z,19.41
2023-06-11T12:14:28.859Z,19.39
2023-06-11T12:15:28.840Z,19.39
2023-06-11T12:16:28.905Z,19.41
2023-06-11T12:17:28.859Z,19.42
2023-06-11T12:18:28.799Z,19.42
2023-06-11T12:19:28.787Z,19.45
2023-06-11T12:20:28.768Z,19.46
2023-06-11T12:21:28.778Z,19.45
2023-06-11T12:22:28.764Z,19.41
2023-06-11T12:23:28.739Z,19.38
2023-06-11T12:24:28.835Z,19.41
2023-06-11T12:25:28.870Z,19.42
2023-06-11T12:26:28.694Z,19.45
2023-06-11T12:27:28.668Z,19.42
2023-06-11T12:28:28.783Z,19.47
2023-06-11T12:29:28.650Z,19.42
2023-06-11T12:30:28.636Z,19.42
2023-06-11T12:31:28.644Z,19.37
2023-06-11T12:32:28.671Z,19.37
2023-06-11T12:33:28.610Z,19.35
2023-06-11T12:34:28.604Z,19.39
2023-06-11T12:35:28.575Z,19.38
2023-06-11T12:36:28.556Z,19.41
2023-06-11T12:37:28.537Z,19.42
2023-06-11T12:38:28.528Z,19.46
2023-06-11T12:39:28.520Z,19.46
2023-06-11T12:40:28.500Z,19.46
2023-06-11T12:41:28.481Z,19.42
2023-06-11T12:42:28.478Z,19.45
2023-06-11T12:43:28.500Z,19.49
2023-06-11T12:44:28.490Z,19.45
2023-06-11T12:45:28.443Z,19.45
2023-06-11T12:46:28.451Z,19.42
2023-06-11T12:47:28.437Z,19.41
2023-06-11T12:48:28.395Z,19.45
2023-06-11T12:49:28.378Z,19.45
2023-06-11T12:50:28.873Z,19.45
2023-06-11T12:51:28.353Z,19.39
2023-06-11T12:52:28.363Z,19.35